Terminal Aerodrome Forecast
Issued by NWS

Home | Current Version | Previous Version | Text Only | Print | Product List | Glossary On
Versions: 1 2 3 4 5 6 7 8 9 10 11 12 13 14 15 16 17 18
000
FTUS43 KSGF 010500
TAFJLN
TAF
KJLN 010533Z 0106/0206 18010KT 5SM -RA BR OVC025
     FM010700 19010KT 4SM -RA BR OVC007 WS020/23040KT
     FM011100 21010KT 3SM -DZRA BR OVC007
     FM011500 27017G28KT 5SM -RADZ OVC007
     FM011800 31020G31KT P6SM OVC025 PROB30 0200/0206 6SM -SN
      BKN015=

USA.gov is the U.S. government's official web portal to all federal, state and local government web resources and services.